Time;durP1;ratioP1;P1;durP2;ratioP2;P2;SDS_P1;SDS_P2;PMS_P1;PMS_P2;Temp;Humidity;BMP_temperature;BMP_pressure;BME280_temperature;BME280_humidity;BME280_pressure;Samples;Min_cycle;Max_cycle;Signal;HPM_P1;HPM_P2
2022/03/06 00:02:23;;;;;;;17.02;13.60;;;2.90;99.90;;;;;;5019655;28;20046;-56
2022/03/06 00:04:49;;;;;;;16.85;12.88;;;3.00;99.90;;;;;;5024428;28;20045;-53
2022/03/06 00:07:15;;;;;;;19.55;13.18;;;3.00;99.90;;;;;;5022003;28;20051;-54
2022/03/06 00:09:40;;;;;;;16.92;13.70;;;3.00;99.90;;;;;;5028168;28;20357;-55
2022/03/06 00:12:07;;;;;;;17.83;12.82;;;3.00;99.90;;;;;;5026401;28;20051;-53
2022/03/06 00:14:33;;;;;;;15.60;12.18;;;2.90;99.90;;;;;;5014476;28;20068;-52
2022/03/06 00:16:58;;;;;;;17.75;12.10;;;2.90;99.90;;;;;;5033979;28;20100;-53
2022/03/06 00:19:24;;;;;;;16.13;13.02;;;2.90;99.90;;;;;;5032285;28;20542;-56
2022/03/06 00:21:50;;;;;;;16.10;13.07;;;2.90;99.90;;;;;;5026393;28;20049;-55
2022/03/06 00:24:15;;;;;;;17.27;13.20;;;2.90;99.90;;;;;;5027161;28;20090;-56
2022/03/06 00:26:41;;;;;;;15.98;11.75;;;2.90;99.90;;;;;;5026919;28;20067;-56
2022/03/06 00:29:07;;;;;;;14.85;11.88;;;2.90;99.90;;;;;;5001971;28;20057;-55
2022/03/06 00:31:33;;;;;;;13.10;11.23;;;2.90;99.90;;;;;;5024134;28;20037;-57
2022/03/06 00:33:58;;;;;;;17.00;12.55;;;2.90;99.90;;;;;;5023276;28;20041;-57
2022/03/06 00:36:24;;;;;;;16.48;12.00;;;2.90;99.90;;;;;;5034068;28;20460;-56
2022/03/06 00:38:50;;;;;;;18.00;13.07;;;2.90;99.90;;;;;;5030648;28;20482;-52
2022/03/06 00:41:16;;;;;;;16.25;12.00;;;2.90;99.90;;;;;;5031332;28;20094;-55
2022/03/06 00:43:42;;;;;;;17.70;11.93;;;2.90;99.90;;;;;;5036397;28;20044;-57
2022/03/06 00:46:08;;;;;;;19.17;12.95;;;2.90;99.90;;;;;;5031998;28;20038;-57
2022/03/06 00:48:34;;;;;;;15.98;11.82;;;2.90;99.90;;;;;;5024905;28;20086;-55
2022/03/06 00:51:01;;;;;;;16.42;13.02;;;2.90;99.90;;;;;;5012811;28;20052;-55
2022/03/06 00:53:27;;;;;;;17.58;13.25;;;2.90;99.90;;;;;;5024718;28;20441;-53
2022/03/06 00:55:52;;;;;;;17.23;13.90;;;2.80;99.90;;;;;;5031434;28;20553;-55
2022/03/06 00:58:18;;;;;;;17.75;13.75;;;2.80;99.90;;;;;;5029839;28;20065;-55
2022/03/06 01:00:47;;;;;;;16.15;12.75;;;2.80;99.90;;;;;;5023862;28;20098;-54
2022/03/06 01:03:16;;;;;;;17.75;12.98;;;2.80;99.90;;;;;;5030993;28;20041;-55
2022/03/06 01:05:42;;;;;;;18.08;12.57;;;2.80;99.90;;;;;;5029059;28;20049;-55
2022/03/06 01:08:09;;;;;;;21.60;14.02;;;2.80;99.90;;;;;;5017718;28;20076;-53
2022/03/06 01:10:37;;;;;;;20.05;14.77;;;2.80;99.90;;;;;;5023370;28;20492;-54
2022/03/06 01:13:04;;;;;;;16.13;12.90;;;2.80;99.90;;;;;;4992896;28;20041;-53
2022/03/06 01:15:30;;;;;;;19.83;14.68;;;2.70;99.90;;;;;;5032066;28;20041;-54
2022/03/06 01:17:56;;;;;;;22.90;14.00;;;2.80;99.90;;;;;;5008421;28;20179;-51
2022/03/06 01:20:23;;;;;;;16.40;12.45;;;2.70;99.90;;;;;;5017754;28;20102;-55
2022/03/06 01:22:50;;;;;;;18.65;13.65;;;2.70;99.90;;;;;;5002789;28;20454;-55
2022/03/06 01:25:16;;;;;;;19.90;14.38;;;2.80;99.90;;;;;;5025646;28;20046;-55
2022/03/06 01:27:42;;;;;;;16.38;13.52;;;2.80;99.90;;;;;;5026327;28;20066;-51
2022/03/06 01:30:10;;;;;;;22.85;15.15;;;2.80;99.90;;;;;;5024192;28;20630;-52
2022/03/06 01:32:36;;;;;;;18.33;13.55;;;2.80;99.90;;;;;;4994585;28;20045;-55
2022/03/06 01:35:04;;;;;;;15.82;13.00;;;2.80;99.90;;;;;;5024118;28;20038;-52
2022/03/06 01:37:30;;;;;;;17.70;13.30;;;2.80;99.90;;;;;;5021265;28;20447;-53
2022/03/06 01:39:55;;;;;;;16.88;12.85;;;2.80;99.90;;;;;;5015128;28;21384;-52
2022/03/06 01:42:21;;;;;;;19.40;13.82;;;2.70;99.90;;;;;;5009899;28;20036;-55
2022/03/06 01:44:51;;;;;;;18.30;13.02;;;2.80;99.90;;;;;;5030074;28;20041;-55
2022/03/06 01:47:54;;;;;;;17.98;13.07;;;2.80;99.90;;;;;;5007529;28;20714;-53
2022/03/06 01:50:20;;;;;;;16.13;12.63;;;2.80;99.90;;;;;;5019784;28;20052;-54
2022/03/06 01:52:48;;;;;;;16.95;12.52;;;2.80;99.90;;;;;;5010853;28;20037;-56
2022/03/06 01:55:15;;;;;;;16.65;11.98;;;2.80;99.90;;;;;;5027059;28;20503;-51
2022/03/06 01:57:42;;;;;;;19.85;12.90;;;2.80;99.90;;;;;;5006809;28;20594;-54
2022/03/06 02:00:12;;;;;;;17.08;12.75;;;2.90;99.90;;;;;;5020865;28;20424;-52
2022/03/06 02:02:39;;;;;;;14.60;10.75;;;2.90;99.90;;;;;;5033386;28;20307;-52
2022/03/06 02:05:06;;;;;;;16.02;10.80;;;2.90;99.90;;;;;;5011675;28;20494;-54
2022/03/06 02:07:32;;;;;;;15.38;11.52;;;2.90;99.90;;;;;;5017875;28;20140;-53
2022/03/06 02:09:59;;;;;;;14.77;10.98;;;2.80;99.90;;;;;;5021959;28;20060;-51
2022/03/06 02:12:26;;;;;;;13.63;10.95;;;2.90;99.90;;;;;;5023880;28;20149;-52
2022/03/06 02:14:57;;;;;;;14.80;10.82;;;2.90;99.90;;;;;;5025016;28;20488;-56
2022/03/06 02:17:25;;;;;;;12.63;10.25;;;2.90;99.90;;;;;;5025459;28;20072;-56
2022/03/06 02:19:56;;;;;;;14.00;10.52;;;2.80;99.90;;;;;;5013658;28;20049;-53
2022/03/06 02:22:27;;;;;;;15.57;11.07;;;2.90;99.90;;;;;;5018007;28;20244;-54
2022/03/06 02:24:53;;;;;;;16.67;10.77;;;2.90;99.90;;;;;;5016341;28;20037;-56
2022/03/06 02:27:20;;;;;;;14.52;9.52;;;2.90;99.90;;;;;;5011766;28;20083;-51
2022/03/06 02:29:46;;;;;;;14.55;9.98;;;2.90;99.90;;;;;;5019467;28;20049;-55
2022/03/06 02:32:15;;;;;;;12.88;9.65;;;2.90;99.90;;;;;;5020766;28;20100;-54
2022/03/06 02:34:42;;;;;;;12.80;8.68;;;2.90;99.90;;;;;;5019175;28;20111;-52
2022/03/06 02:37:09;;;;;;;13.93;9.02;;;3.00;99.90;;;;;;5024809;28;23023;-52
2022/03/06 02:39:34;;;;;;;10.23;7.63;;;3.00;99.90;;;;;;5013819;28;20049;-52
2022/03/06 02:42:01;;;;;;;11.05;7.57;;;2.90;99.90;;;;;;5018568;28;20048;-51
2022/03/06 02:44:28;;;;;;;9.43;7.07;;;2.90;99.90;;;;;;5027888;28;20431;-52
2022/03/06 02:46:55;;;;;;;11.43;7.72;;;2.90;99.90;;;;;;5029444;28;20068;-57
2022/03/06 02:49:21;;;;;;;14.15;6.72;;;3.00;99.90;;;;;;5012809;28;20381;-57
2022/03/06 02:51:47;;;;;;;12.18;6.68;;;3.00;99.90;;;;;;5007560;28;20041;-56
2022/03/06 02:54:17;;;;;;;9.07;6.15;;;3.00;99.90;;;;;;5003916;28;20048;-52
2022/03/06 02:56:43;;;;;;;8.80;5.97;;;3.00;99.90;;;;;;5027103;28;20037;-55
2022/03/06 02:59:09;;;;;;;11.98;6.47;;;3.00;99.90;;;;;;5026473;28;20704;-54
2022/03/06 03:01:40;;;;;;;9.00;5.68;;;3.00;99.90;;;;;;5019852;28;20033;-55
2022/03/06 03:04:06;;;;;;;9.65;6.38;;;3.00;99.90;;;;;;5008256;28;20091;-55
2022/03/06 03:06:32;;;;;;;12.25;7.05;;;3.00;99.90;;;;;;5030403;28;20057;-55
2022/03/06 03:08:58;;;;;;;10.30;5.97;;;3.00;99.90;;;;;;5022793;28;20270;-55
2022/03/06 03:11:24;;;;;;;13.43;6.32;;;3.00;99.90;;;;;;5008552;28;20507;-56
2022/03/06 03:13:50;;;;;;;10.77;6.18;;;3.00;99.90;;;;;;5003627;28;20190;-55
2022/03/06 03:16:16;;;;;;;14.00;6.72;;;2.90;99.90;;;;;;5019311;28;20036;-55
2022/03/06 03:18:41;;;;;;;10.25;6.38;;;2.90;99.90;;;;;;5030658;28;20041;-54
2022/03/06 03:21:07;;;;;;;8.88;5.95;;;2.90;99.90;;;;;;5020346;28;20045;-56
2022/03/06 03:23:33;;;;;;;11.27;6.93;;;2.90;99.90;;;;;;5036805;28;20051;-55
2022/03/06 03:25:58;;;;;;;12.02;7.10;;;2.90;99.90;;;;;;5012170;28;20276;-54
2022/03/06 03:28:24;;;;;;;10.75;7.13;;;2.90;99.90;;;;;;5029670;28;20041;-56
2022/03/06 03:30:50;;;;;;;11.38;6.80;;;2.90;99.90;;;;;;5028131;28;20400;-55
2022/03/06 03:33:16;;;;;;;9.40;6.53;;;2.90;99.90;;;;;;5018145;28;20082;-55
2022/03/06 03:35:41;;;;;;;10.43;7.18;;;2.90;99.90;;;;;;5026790;28;20579;-53
2022/03/06 03:38:07;;;;;;;13.52;7.50;;;2.90;99.90;;;;;;5020569;28;20044;-55
2022/03/06 03:40:33;;;;;;;10.95;7.43;;;2.90;99.90;;;;;;5031863;28;20037;-54
2022/03/06 03:42:58;;;;;;;11.18;6.97;;;2.90;99.90;;;;;;5028510;28;20078;-55
2022/03/06 03:45:24;;;;;;;9.75;6.93;;;2.90;99.90;;;;;;5032213;28;20497;-56
2022/03/06 03:47:50;;;;;;;11.75;6.55;;;2.90;99.90;;;;;;5038172;28;20037;-55
2022/03/06 03:50:15;;;;;;;13.00;7.03;;;2.90;99.90;;;;;;5033075;28;20044;-56
2022/03/06 03:52:41;;;;;;;12.88;7.43;;;3.00;99.90;;;;;;5029294;28;20044;-54
2022/03/06 03:55:07;;;;;;;9.63;6.70;;;3.00;99.90;;;;;;5029701;28;20037;-55
2022/03/06 03:57:33;;;;;;;13.02;7.63;;;3.00;99.90;;;;;;5029348;28;20488;-55
2022/03/06 03:59:58;;;;;;;12.73;7.47;;;3.00;99.90;;;;;;5034733;28;20089;-53
2022/03/06 04:02:24;;;;;;;13.02;7.80;;;3.00;99.90;;;;;;5028367;28;20049;-53
2022/03/06 04:04:50;;;;;;;12.07;8.07;;;3.10;99.90;;;;;;5032437;28;20106;-56
2022/03/06 04:07:16;;;;;;;11.45;7.82;;;3.00;99.90;;;;;;5022661;28;20489;-56
2022/03/06 04:09:42;;;;;;;10.25;7.15;;;3.10;99.90;;;;;;5029117;28;20136;-56
2022/03/06 04:12:08;;;;;;;12.32;8.90;;;3.00;99.90;;;;;;5012831;28;20120;-57
2022/03/06 04:14:34;;;;;;;12.57;7.45;;;3.10;99.90;;;;;;5031197;28;20124;-55
2022/03/06 04:17:00;;;;;;;14.30;7.18;;;3.10;99.90;;;;;;5025598;28;20449;-56
2022/03/06 04:19:26;;;;;;;9.70;7.30;;;3.10;99.90;;;;;;5026990;28;20052;-57
2022/03/06 04:21:52;;;;;;;13.65;8.60;;;3.10;99.90;;;;;;5023581;28;20040;-57
2022/03/06 04:24:18;;;;;;;11.80;8.13;;;3.10;99.90;;;;;;5030271;28;20041;-57
2022/03/06 04:26:44;;;;;;;12.20;7.30;;;3.10;99.90;;;;;;5026952;28;20044;-56
2022/03/06 04:29:10;;;;;;;9.85;7.25;;;3.20;99.90;;;;;;5029631;28;20522;-55
2022/03/06 04:31:36;;;;;;;12.63;7.75;;;3.10;99.90;;;;;;5026721;28;20049;-55
2022/03/06 04:34:02;;;;;;;14.68;8.20;;;3.10;99.90;;;;;;5025105;28;20738;-55
2022/03/06 04:36:28;;;;;;;11.10;7.13;;;3.10;99.90;;;;;;5028237;28;20215;-55
2022/03/06 04:38:54;;;;;;;11.00;7.72;;;3.10;99.90;;;;;;5029979;28;21802;-55
2022/03/06 04:41:20;;;;;;;10.30;6.85;;;3.10;99.90;;;;;;5024948;28;20044;-53
2022/03/06 04:43:45;;;;;;;15.75;7.40;;;3.00;99.90;;;;;;5035020;28;20037;-56
2022/03/06 04:46:12;;;;;;;10.18;7.25;;;3.10;99.90;;;;;;5023534;28;20530;-53
2022/03/06 04:48:38;;;;;;;12.63;7.65;;;3.10;99.90;;;;;;5026825;28;20046;-54
2022/03/06 04:51:04;;;;;;;12.38;7.25;;;3.10;99.90;;;;;;5033217;28;20055;-55
2022/03/06 04:53:31;;;;;;;10.45;6.72;;;3.10;99.90;;;;;;5024092;28;20044;-55
2022/03/06 04:55:57;;;;;;;10.50;6.80;;;3.10;99.90;;;;;;5028935;28;20048;-55
2022/03/06 04:58:22;;;;;;;11.43;6.60;;;3.10;99.90;;;;;;4999655;28;20412;-56
2022/03/06 05:00:48;;;;;;;9.10;6.35;;;3.10;99.90;;;;;;5026438;28;20053;-56
2022/03/06 05:03:15;;;;;;;11.77;7.18;;;3.10;99.90;;;;;;5032405;28;20037;-54
2022/03/06 05:05:40;;;;;;;9.52;6.70;;;3.10;99.90;;;;;;5034236;28;20111;-53
2022/03/06 05:08:06;;;;;;;11.50;6.95;;;3.10;99.90;;;;;;5027284;28;20490;-55
2022/03/06 05:10:32;;;;;;;11.05;6.07;;;3.10;99.90;;;;;;5050101;22;20055;-56
2022/03/06 05:12:58;;;;;;;10.90;6.25;;;3.10;99.90;;;;;;5045299;28;20024;-54
2022/03/06 05:15:23;;;;;;;10.60;6.22;;;3.10;99.90;;;;;;5052274;28;20334;-53
2022/03/06 05:17:49;;;;;;;9.60;5.85;;;3.10;99.90;;;;;;5043641;28;20494;-55
2022/03/06 05:20:15;;;;;;;10.45;5.90;;;3.10;99.90;;;;;;5036206;28;20446;-52
2022/03/06 05:22:41;;;;;;;10.65;5.45;;;3.10;99.90;;;;;;5029882;28;20044;-56
2022/03/06 05:25:08;;;;;;;7.75;5.22;;;3.10;99.90;;;;;;5023212;28;20122;-53
2022/03/06 05:27:34;;;;;;;10.32;6.00;;;3.10;99.90;;;;;;5022952;28;20059;-54
2022/03/06 05:29:59;;;;;;;8.75;5.55;;;3.10;99.90;;;;;;5007330;28;20448;-52
2022/03/06 05:32:25;;;;;;;9.63;5.18;;;3.00;99.90;;;;;;5024334;28;20038;-54
2022/03/06 05:34:51;;;;;;;9.15;5.00;;;3.00;99.90;;;;;;5022538;28;20045;-52
2022/03/06 05:37:17;;;;;;;8.45;5.30;;;3.10;99.90;;;;;;5024916;28;20046;-52
2022/03/06 05:39:42;;;;;;;8.02;4.72;;;3.00;99.90;;;;;;5029144;28;20052;-54
2022/03/06 05:42:08;;;;;;;9.15;5.28;;;3.10;99.90;;;;;;5026832;28;20601;-52
2022/03/06 05:44:34;;;;;;;6.60;4.28;;;3.10;99.90;;;;;;5031488;28;20083;-56
2022/03/06 05:47:00;;;;;;;9.65;4.50;;;3.10;99.90;;;;;;5029939;28;20049;-55
2022/03/06 05:49:26;;;;;;;10.20;4.38;;;3.10;99.90;;;;;;5021779;28;20040;-52
2022/03/06 05:51:51;;;;;;;7.15;3.90;;;3.10;99.90;;;;;;5031871;28;20034;-53
2022/03/06 05:54:17;;;;;;;5.75;3.67;;;3.10;99.90;;;;;;5010365;28;20057;-56
2022/03/06 05:56:43;;;;;;;9.32;3.78;;;3.10;99.90;;;;;;5012931;28;20467;-56
2022/03/06 05:59:09;;;;;;;4.80;3.50;;;3.10;99.90;;;;;;5023877;28;20492;-57
2022/03/06 06:01:34;;;;;;;8.02;3.30;;;3.00;99.90;;;;;;5029974;28;20041;-55
2022/03/06 06:04:01;;;;;;;7.55;3.20;;;3.00;99.90;;;;;;5023986;28;20132;-56
2022/03/06 06:06:27;;;;;;;4.90;2.65;;;3.00;99.90;;;;;;5028736;28;20057;-52
2022/03/06 06:08:54;;;;;;;5.05;2.72;;;3.00;99.60;;;;;;5030456;28;20048;-55
2022/03/06 06:11:20;;;;;;;3.83;2.42;;;3.00;99.50;;;;;;5027858;28;20052;-55
2022/03/06 06:13:47;;;;;;;4.93;2.50;;;3.00;99.50;;;;;;5029915;28;20037;-52
2022/03/06 06:16:13;;;;;;;5.60;2.67;;;3.00;99.10;;;;;;5031195;28;20055;-53
2022/03/06 06:18:40;;;;;;;4.28;1.95;;;3.00;99.00;;;;;;5030348;28;20041;-52
2022/03/06 06:21:06;;;;;;;4.82;2.13;;;3.00;98.90;;;;;;5035751;28;20059;-52
2022/03/06 06:23:32;;;;;;;4.97;2.35;;;3.00;98.40;;;;;;5011993;28;20041;-54
2022/03/06 06:25:58;;;;;;;4.45;2.13;;;3.00;98.40;;;;;;5012676;28;20037;-54
2022/03/06 06:28:24;;;;;;;2.88;1.80;;;3.00;98.00;;;;;;5032467;28;20048;-52
2022/03/06 06:30:51;;;;;;;5.82;2.13;;;3.00;97.50;;;;;;5005385;28;20174;-56
2022/03/06 06:33:16;;;;;;;5.15;2.10;;;3.00;97.20;;;;;;5022648;28;20295;-52
2022/03/06 06:35:42;;;;;;;6.50;2.30;;;3.10;97.40;;;;;;5033051;28;20040;-51
2022/03/06 06:38:08;;;;;;;2.65;1.75;;;3.00;97.40;;;;;;5032370;28;20404;-55
2022/03/06 06:40:34;;;;;;;4.50;2.10;;;3.00;97.40;;;;;;5036733;28;20177;-52
2022/03/06 06:43:00;;;;;;;6.28;2.20;;;3.00;97.20;;;;;;5029283;28;20400;-53
2022/03/06 06:45:26;;;;;;;4.63;2.80;;;3.00;97.10;;;;;;5010612;28;20572;-55
2022/03/06 06:47:51;;;;;;;5.25;2.10;;;3.10;97.30;;;;;;5030008;28;20129;-55
2022/03/06 06:50:17;;;;;;;3.83;2.30;;;3.10;97.30;;;;;;5012148;28;20318;-56
2022/03/06 06:52:43;;;;;;;2.53;1.80;;;3.10;97.40;;;;;;5033215;28;20480;-52
2022/03/06 06:55:09;;;;;;;4.30;1.90;;;3.00;97.10;;;;;;5016630;28;20044;-57
2022/03/06 06:57:35;;;;;;;3.88;2.20;;;3.00;96.80;;;;;;5031625;28;20083;-57
2022/03/06 07:00:02;;;;;;;5.07;2.42;;;3.00;96.80;;;;;;5030506;28;20060;-53
2022/03/06 07:02:28;;;;;;;7.70;1.85;;;3.00;96.50;;;;;;5006992;28;20045;-55
2022/03/06 07:04:54;;;;;;;5.13;1.65;;;3.00;95.30;;;;;;5028246;28;20048;-52
2022/03/06 07:07:19;;;;;;;4.80;1.83;;;3.00;95.80;;;;;;5025991;28;20422;-52
2022/03/06 07:09:45;;;;;;;4.63;1.92;;;2.90;95.30;;;;;;5035840;28;20590;-53
2022/03/06 07:12:11;;;;;;;4.20;2.10;;;3.10;95.20;;;;;;5032641;28;20440;-56
2022/03/06 07:14:37;;;;;;;3.50;1.80;;;3.50;95.00;;;;;;5026950;28;20037;-54
2022/03/06 07:17:03;;;;;;;4.38;1.92;;;3.90;94.90;;;;;;5034270;28;20080;-55
2022/03/06 07:19:29;;;;;;;3.38;2.10;;;4.00;94.60;;;;;;5022346;28;20060;-56
2022/03/06 07:21:55;;;;;;;3.60;1.67;;;4.10;94.40;;;;;;5026277;28;20860;-53
2022/03/06 07:24:21;;;;;;;3.15;1.90;;;4.20;94.00;;;;;;5016001;28;20049;-56
2022/03/06 07:26:46;;;;;;;3.92;2.00;;;4.20;94.10;;;;;;5032431;28;20453;-53
2022/03/06 07:29:12;;;;;;;3.88;1.85;;;4.10;94.40;;;;;;5027489;28;20128;-54
2022/03/06 07:31:38;;;;;;;5.28;1.98;;;4.10;94.00;;;;;;5030615;28;20041;-56
2022/03/06 07:34:04;;;;;;;2.88;1.58;;;4.00;93.90;;;;;;5032251;28;20076;-57
2022/03/06 07:36:29;;;;;;;5.55;1.83;;;4.00;94.00;;;;;;5028060;28;20045;-55
2022/03/06 07:38:55;;;;;;;7.28;1.90;;;3.90;93.80;;;;;;5027099;28;20029;-54
2022/03/06 07:41:21;;;;;;;3.92;2.00;;;3.80;93.50;;;;;;5025314;28;20524;-55
2022/03/06 07:43:47;;;;;;;3.03;1.92;;;3.80;93.50;;;;;;5030952;28;20458;-55
2022/03/06 07:46:13;;;;;;;3.58;1.60;;;3.80;93.60;;;;;;5028960;28;20045;-56
2022/03/06 07:48:38;;;;;;;4.60;1.83;;;3.80;93.60;;;;;;5031704;28;20040;-54
2022/03/06 07:51:05;;;;;;;3.17;1.50;;;3.80;94.00;;;;;;5026199;28;20201;-57
2022/03/06 07:53:30;;;;;;;4.03;1.80;;;4.00;94.20;;;;;;5016180;28;20467;-54
2022/03/06 07:55:56;;;;;;;6.35;2.78;;;4.00;93.90;;;;;;5030283;28;20037;-55
2022/03/06 07:58:22;;;;;;;4.30;1.92;;;4.00;93.70;;;;;;5036878;28;20033;-54
2022/03/06 08:00:48;;;;;;;5.65;2.38;;;4.10;93.50;;;;;;5031808;28;20512;-57
2022/03/06 08:03:15;;;;;;;4.38;2.00;;;4.20;93.60;;;;;;5027062;28;20258;-55
2022/03/06 08:05:41;;;;;;;5.63;2.38;;;4.20;93.20;;;;;;5026256;28;20573;-54
2022/03/06 08:08:07;;;;;;;4.57;2.00;;;4.30;93.10;;;;;;5028962;28;20052;-57
2022/03/06 08:10:33;;;;;;;5.15;2.05;;;4.40;92.30;;;;;;5025039;28;20066;-55
2022/03/06 08:12:59;;;;;;;4.32;1.58;;;4.40;92.00;;;;;;5019320;28;20032;-56
2022/03/06 08:15:25;;;;;;;3.55;1.70;;;4.40;91.60;;;;;;5032963;28;20092;-56
2022/03/06 08:17:50;;;;;;;5.78;1.98;;;4.50;91.50;;;;;;5037802;28;20076;-55
2022/03/06 08:20:16;;;;;;;4.35;2.05;;;4.50;91.20;;;;;;5032905;28;20148;-53
2022/03/06 08:22:42;;;;;;;4.53;2.35;;;4.60;91.30;;;;;;5031837;28;20198;-52
2022/03/06 08:25:08;;;;;;;6.20;2.72;;;4.60;91.30;;;;;;5028048;28;20064;-55
2022/03/06 08:27:34;;;;;;;3.88;2.10;;;4.70;91.10;;;;;;5030773;28;20029;-52
2022/03/06 08:30:01;;;;;;;3.88;2.00;;;4.80;90.80;;;;;;5033095;28;20546;-54
2022/03/06 08:32:26;;;;;;;5.45;2.35;;;4.90;91.00;;;;;;5020353;28;20044;-53
2022/03/06 08:34:52;;;;;;;4.75;2.13;;;4.90;89.80;;;;;;5035934;28;20476;-53
2022/03/06 08:37:19;;;;;;;4.85;2.00;;;4.90;89.90;;;;;;5031697;28;20032;-55
2022/03/06 08:39:46;;;;;;;4.90;2.00;;;5.00;90.00;;;;;;5025796;28;20049;-56
2022/03/06 08:42:12;;;;;;;7.50;2.20;;;5.00;89.50;;;;;;5028757;28;20496;-55
2022/03/06 08:44:38;;;;;;;5.53;1.88;;;5.00;89.20;;;;;;5029252;28;20041;-55
2022/03/06 08:47:04;;;;;;;3.53;1.83;;;5.10;89.50;;;;;;5030457;28;20037;-54
2022/03/06 08:49:29;;;;;;;3.70;1.95;;;5.20;89.80;;;;;;5031512;28;20033;-52
2022/03/06 08:51:55;;;;;;;4.78;2.38;;;5.20;89.20;;;;;;5032822;28;20419;-54
2022/03/06 08:54:21;;;;;;;4.18;2.03;;;5.30;87.60;;;;;;5018967;28;20080;-55
2022/03/06 08:56:47;;;;;;;3.97;1.75;;;5.30;86.90;;;;;;5004331;28;20490;-56
2022/03/06 08:59:13;;;;;;;5.35;2.40;;;5.40;86.80;;;;;;5022184;28;20049;-54
2022/03/06 09:01:38;;;;;;;4.30;2.20;;;5.40;85.60;;;;;;5027763;28;20215;-53
2022/03/06 09:04:04;;;;;;;9.75;5.18;;;5.40;86.50;;;;;;5025826;28;20048;-53
2022/03/06 09:06:30;;;;;;;4.30;2.38;;;5.60;86.00;;;;;;5014846;28;20048;-53
2022/03/06 09:08:56;;;;;;;5.15;1.90;;;5.70;86.40;;;;;;5012113;28;20098;-56
2022/03/06 09:11:22;;;;;;;5.22;2.38;;;5.70;86.30;;;;;;5021600;28;20051;-52
2022/03/06 09:13:48;;;;;;;4.63;2.40;;;5.60;86.50;;;;;;5007517;28;20464;-53
2022/03/06 09:16:13;;;;;;;4.03;2.67;;;5.80;85.10;;;;;;5027797;28;20499;-55
2022/03/06 09:18:39;;;;;;;7.03;2.10;;;5.90;84.30;;;;;;5030582;28;20048;-55
2022/03/06 09:21:05;;;;;;;5.78;3.22;;;5.70;84.30;;;;;;5035388;28;20127;-56
2022/03/06 09:23:31;;;;;;;5.85;2.47;;;5.70;84.00;;;;;;5032934;28;20083;-52
2022/03/06 09:25:56;;;;;;;4.68;1.92;;;5.70;84.00;;;;;;5034357;28;20044;-55
2022/03/06 09:28:22;;;;;;;8.57;2.53;;;5.80;84.40;;;;;;5034213;28;20084;-52
2022/03/06 09:30:48;;;;;;;2.47;2.00;;;5.90;84.40;;;;;;5028719;28;20041;-56
2022/03/06 09:33:14;;;;;;;8.95;2.95;;;6.00;85.50;;;;;;5030913;28;20381;-56
2022/03/06 09:35:40;;;;;;;3.05;1.90;;;6.20;84.60;;;;;;5018923;28;20495;-56
2022/03/06 09:38:06;;;;;;;3.75;2.10;;;6.20;83.10;;;;;;5028809;28;20045;-57
2022/03/06 09:40:31;;;;;;;8.63;2.53;;;6.30;83.60;;;;;;5037483;28;20049;-53
2022/03/06 09:42:58;;;;;;;3.65;2.70;;;6.40;83.70;;;;;;5031405;28;20068;-54
2022/03/06 09:45:24;;;;;;;4.07;2.00;;;6.40;83.60;;;;;;5039004;28;20049;-54
2022/03/06 09:47:50;;;;;;;3.50;2.00;;;6.50;82.80;;;;;;5036850;28;20574;-55
2022/03/06 09:50:16;;;;;;;5.32;2.30;;;6.60;82.50;;;;;;5023973;28;20040;-55
2022/03/06 09:52:43;;;;;;;5.05;2.53;;;6.40;81.00;;;;;;5036493;28;20033;-53
2022/03/06 09:55:10;;;;;;;5.00;1.95;;;6.50;82.40;;;;;;5031173;28;20077;-53
2022/03/06 09:57:36;;;;;;;4.80;2.55;;;6.60;82.00;;;;;;5041222;28;20993;-55
2022/03/06 10:00:05;;;;;;;4.38;2.20;;;6.80;82.90;;;;;;5049404;28;20037;-55
2022/03/06 10:02:31;;;;;;;5.13;2.30;;;6.90;82.10;;;;;;5044026;28;20450;-56
2022/03/06 10:04:57;;;;;;;7.20;2.80;;;7.00;81.90;;;;;;5054395;28;20045;-52
2022/03/06 10:07:22;;;;;;;5.50;2.67;;;7.20;82.80;;;;;;5051644;28;20301;-55
2022/03/06 10:09:51;;;;;;;6.32;2.67;;;7.30;81.30;;;;;;5057194;28;20575;-56
2022/03/06 10:12:28;;;;;;;5.03;2.30;;;7.40;81.80;;;;;;5031719;28;20403;-52
2022/03/06 10:14:56;;;;;;;6.18;2.40;;;7.50;80.50;;;;;;5044421;28;20471;-55
2022/03/06 10:17:23;;;;;;;5.45;2.30;;;7.50;80.50;;;;;;5030378;28;20036;-55
2022/03/06 10:20:00;;;;;;;4.90;2.30;;;7.60;79.90;;;;;;5045241;28;20041;-52
2022/03/06 10:22:31;;;;;;;5.25;2.20;;;7.60;80.00;;;;;;5045168;28;20041;-54
2022/03/06 10:25:02;;;;;;;3.72;2.00;;;7.70;79.70;;;;;;5029782;28;20059;-55
2022/03/06 10:27:57;;;;;;;5.25;2.33;;;7.80;80.90;;;;;;5043615;28;20048;-55
2022/03/06 10:30:29;;;;;;;5.20;2.17;;;7.90;79.60;;;;;;5044316;28;20270;-55
2022/03/06 10:32:57;;;;;;;5.03;2.22;;;7.90;77.90;;;;;;5043134;28;20128;-52
2022/03/06 10:35:30;;;;;;;5.57;2.55;;;7.80;78.80;;;;;;5043949;28;20504;-55
2022/03/06 10:37:56;;;;;;;4.15;2.03;;;7.90;79.50;;;;;;5043645;28;20037;-53
2022/03/06 10:40:33;;;;;;;5.80;2.47;;;8.00;77.70;;;;;;5045967;28;20111;-53
2022/03/06 10:42:59;;;;;;;4.93;2.20;;;7.90;78.70;;;;;;5031647;28;20045;-54
2022/03/06 10:45:25;;;;;;;4.78;2.20;;;7.80;78.00;;;;;;5043264;28;20070;-52
2022/03/06 10:47:51;;;;;;;4.97;2.55;;;7.90;77.90;;;;;;5039050;28;20044;-54
2022/03/06 10:50:21;;;;;;;4.10;2.10;;;8.00;78.90;;;;;;5026413;28;20154;-53
2022/03/06 10:52:47;;;;;;;5.00;2.45;;;8.10;78.60;;;;;;5041832;28;20507;-52
2022/03/06 10:55:14;;;;;;;4.93;2.10;;;8.50;78.90;;;;;;5042273;28;20052;-53
2022/03/06 10:57:40;;;;;;;5.30;2.22;;;8.40;76.60;;;;;;5039341;28;20028;-52
2022/03/06 11:00:06;;;;;;;5.03;2.33;;;8.40;76.20;;;;;;5042160;28;20045;-54
2022/03/06 11:02:35;;;;;;;4.80;2.00;;;8.40;76.50;;;;;;5045388;28;20491;-54
2022/03/06 11:05:02;;;;;;;4.43;2.55;;;8.50;76.10;;;;;;5042376;28;20096;-55
2022/03/06 11:07:29;;;;;;;7.45;2.72;;;8.60;77.80;;;;;;5028764;28;20120;-56
2022/03/06 11:09:57;;;;;;;5.75;2.20;;;8.70;75.90;;;;;;5043871;28;20041;-53
2022/03/06 11:12:26;;;;;;;4.47;2.50;;;8.60;74.50;;;;;;5047478;28;20394;-52
2022/03/06 11:14:52;;;;;;;5.63;2.00;;;8.30;76.00;;;;;;5044803;28;20068;-54
2022/03/06 11:17:17;;;;;;;5.05;2.25;;;8.40;76.80;;;;;;5029436;28;20303;-55
2022/03/06 11:19:43;;;;;;;6.75;2.50;;;8.40;76.10;;;;;;5048263;28;20037;-52
2022/03/06 11:22:49;;;;;;;4.30;1.70;;;8.40;75.90;;;;;;5040707;28;20129;-53
2022/03/06 11:25:20;;;;;;;5.57;2.22;;;8.30;74.50;;;;;;5042497;28;20170;-52
2022/03/06 11:28:04;;;;;;;4.55;2.17;;;8.10;76.00;;;;;;5034227;28;20040;-53
2022/03/06 11:30:30;;;;;;;6.50;2.40;;;8.20;76.20;;;;;;5033693;28;20072;-52
2022/03/06 11:33:08;;;;;;;5.30;2.45;;;8.00;76.30;;;;;;5042991;28;20091;-54
2022/03/06 11:35:40;;;;;;;6.05;2.45;;;7.90;76.70;;;;;;5037877;28;20450;-52
2022/03/06 11:38:08;;;;;;;4.60;2.22;;;7.80;77.10;;;;;;5033740;28;20049;-56
2022/03/06 11:40:50;;;;;;;5.82;3.00;;;7.90;78.80;;;;;;5034862;28;20045;-54
2022/03/06 11:43:29;;;;;;;7.45;2.25;;;8.20;79.20;;;;;;5031802;28;20132;-54
2022/03/06 11:46:05;;;;;;;4.22;1.75;;;8.30;75.80;;;;;;5027724;28;20081;-56
2022/03/06 11:48:34;;;;;;;5.57;2.08;;;8.30;77.30;;;;;;5019022;28;20083;-57
2022/03/06 11:51:22;;;;;;;3.90;2.40;;;8.30;76.40;;;;;;5035159;28;20453;-56
2022/03/06 11:54:07;;;;;;;7.25;2.70;;;8.30;77.90;;;;;;5032623;28;20052;-53
2022/03/06 11:56:33;;;;;;;5.97;2.28;;;8.40;77.60;;;;;;5036516;28;20112;-56
2022/03/06 11:59:00;;;;;;;4.43;2.08;;;8.30;77.70;;;;;;5037079;28;20547;-56
2022/03/06 12:01:33;;;;;;;5.95;2.20;;;8.30;77.50;;;;;;5016012;28;20068;-55
2022/03/06 12:04:07;;;;;;;4.38;2.30;;;8.30;77.70;;;;;;5038439;28;20063;-55
2022/03/06 12:06:44;;;;;;;6.38;2.30;;;8.40;77.80;;;;;;5034793;28;20045;-56
2022/03/06 12:09:28;;;;;;;4.00;2.08;;;8.30;77.90;;;;;;5042350;28;20130;-52
2022/03/06 12:11:57;;;;;;;3.78;2.15;;;8.30;78.40;;;;;;5037157;28;20137;-56
2022/03/06 12:14:29;;;;;;;5.07;2.33;;;8.40;79.00;;;;;;5039837;28;20041;-52
2022/03/06 12:17:01;;;;;;;5.70;2.70;;;8.40;78.30;;;;;;5027294;28;20518;-54
2022/03/06 12:19:30;;;;;;;9.77;2.90;;;8.30;77.20;;;;;;5034463;28;20054;-53
2022/03/06 12:22:15;;;;;;;8.15;3.00;;;8.30;78.30;;;;;;5027544;28;20049;-55
2022/03/06 12:24:46;;;;;;;5.13;2.65;;;8.30;78.40;;;;;;5026756;28;20543;-54
2022/03/06 12:27:15;;;;;;;5.47;2.50;;;8.40;78.80;;;;;;5042444;28;20911;-55
2022/03/06 12:29:51;;;;;;;6.95;2.83;;;8.40;78.80;;;;;;5036082;28;20029;-53
2022/03/06 12:32:29;;;;;;;6.05;2.50;;;8.40;78.20;;;;;;5038278;28;20037;-53
2022/03/06 12:34:56;;;;;;;5.95;2.25;;;8.40;78.50;;;;;;5041395;28;20068;-55
2022/03/06 12:37:30;;;;;;;6.43;2.13;;;8.50;79.20;;;;;;5035112;28;20064;-57
2022/03/06 12:39:56;;;;;;;;;;;8.60;78.90;;;;;;5038442;28;20335;-56
2022/03/06 12:42:31;;;;;;;4.70;1.92;;;8.70;78.40;;;;;;5033143;28;19923;-56
2022/03/06 12:44:59;;;;;;;3.65;2.05;;;8.60;78.80;;;;;;5031786;28;20049;-54
2022/03/06 12:47:26;;;;;;;3.78;2.40;;;8.60;78.60;;;;;;5029371;28;20619;-57
2022/03/06 12:49:53;;;;;;;4.15;2.08;;;8.60;79.20;;;;;;5025461;28;20400;-55
2022/03/06 12:52:21;;;;;;;5.95;2.25;;;8.70;79.20;;;;;;5040492;28;20103;-57